Time;durP1;ratioP1;P1;durP2;ratioP2;P2;SDS_P1;SDS_P2;PMS_P1;PMS_P2;Temp;Humidity;BMP_temperature;BMP_pressure;BME280_temperature;BME280_humidity;BME280_pressure;Samples;Min_cycle;Max_cycle;Signal;HPM_P1;HPM_P2
2021/09/10 00:00:53;;;;;;;5.80;4.72;;;19.00;99.90;;;;;;5052317;28;20477;-87
2021/09/10 00:03:19;;;;;;;6.35;4.35;;;19.10;99.90;;;;;;5053492;28;20023;-87
2021/09/10 00:05:45;;;;;;;8.13;4.68;;;19.10;99.90;;;;;;5052215;28;20048;-86
2021/09/10 00:08:10;;;;;;;8.85;4.70;;;19.30;99.90;;;;;;5052208;28;20033;-86
2021/09/10 00:10:36;;;;;;;7.78;5.18;;;19.30;99.90;;;;;;5052443;28;20032;-86
2021/09/10 00:13:02;;;;;;;7.30;4.32;;;19.30;99.90;;;;;;5052335;28;20017;-87
2021/09/10 00:15:28;;;;;;;5.60;4.60;;;19.10;99.90;;;;;;5052054;28;20025;-87
2021/09/10 00:17:54;;;;;;;7.00;4.20;;;19.20;99.90;;;;;;5053401;28;20025;-87
2021/09/10 00:20:21;;;;;;;10.65;5.03;;;19.10;99.90;;;;;;5052296;28;20053;-87
2021/09/10 00:22:46;;;;;;;8.68;4.82;;;19.10;99.90;;;;;;5051949;28;20057;-87
2021/09/10 00:25:13;;;;;;;6.35;5.35;;;19.10;99.90;;;;;;5051703;28;20388;-87
2021/09/10 00:27:38;;;;;;;7.75;4.95;;;18.90;99.90;;;;;;5052087;28;20025;-87
2021/09/10 00:30:06;;;;;;;8.05;4.72;;;18.90;99.90;;;;;;5053525;28;20029;-87
2021/09/10 00:32:32;;;;;;;6.00;4.45;;;18.80;99.90;;;;;;5057084;28;20099;-87
2021/09/10 00:34:58;;;;;;;6.13;4.75;;;18.90;99.90;;;;;;5055808;28;20021;-87
2021/09/10 00:37:23;;;;;;;5.63;4.60;;;18.90;99.90;;;;;;5055873;28;20025;-87
2021/09/10 00:39:49;;;;;;;6.65;4.68;;;18.80;99.90;;;;;;5055803;28;20017;-87
2021/09/10 00:42:15;;;;;;;7.82;4.63;;;18.90;99.90;;;;;;5057035;28;20064;-86
2021/09/10 00:44:41;;;;;;;9.02;4.57;;;19.10;99.90;;;;;;5055722;28;20021;-87
2021/09/10 00:47:07;;;;;;;8.00;4.60;;;19.20;99.90;;;;;;5057009;28;20029;-87
2021/09/10 00:49:34;;;;;;;8.63;5.53;;;19.10;99.90;;;;;;5056954;28;20499;-86
2021/09/10 00:51:59;;;;;;;8.50;5.38;;;19.10;99.90;;;;;;5055857;28;20025;-86
2021/09/10 00:54:25;;;;;;;6.25;5.18;;;19.20;99.90;;;;;;5055475;28;20053;-86
2021/09/10 00:56:51;;;;;;;7.85;5.20;;;19.20;99.90;;;;;;5055585;28;20017;-86
2021/09/10 00:59:17;;;;;;;6.68;5.15;;;19.20;99.90;;;;;;5055458;28;20091;-86
2021/09/10 01:01:44;;;;;;;8.90;4.80;;;19.20;99.90;;;;;;5056378;28;20421;-87
2021/09/10 01:04:09;;;;;;;14.73;4.70;;;19.10;99.90;;;;;;5055474;28;20025;-87
2021/09/10 01:06:35;;;;;;;7.28;4.95;;;19.10;99.90;;;;;;5055389;28;20390;-86
2021/09/10 01:09:03;;;;;;;9.70;4.93;;;19.00;99.90;;;;;;5055415;28;20099;-87
2021/09/10 01:11:29;;;;;;;7.85;5.22;;;18.80;99.90;;;;;;5055284;28;20507;-87
2021/09/10 01:13:56;;;;;;;7.15;5.30;;;18.70;99.90;;;;;;5056753;28;20380;-87
2021/09/10 01:16:22;;;;;;;7.15;4.35;;;18.70;99.90;;;;;;5057235;28;20021;-86
2021/09/10 01:18:48;;;;;;;8.40;4.53;;;18.50;99.90;;;;;;5056446;28;20083;-87
2021/09/10 01:21:14;;;;;;;7.22;4.53;;;18.50;99.90;;;;;;5055396;28;20021;-87
2021/09/10 01:23:40;;;;;;;8.93;4.72;;;18.50;99.90;;;;;;5055220;28;20078;-87
2021/09/10 01:26:06;;;;;;;8.63;4.80;;;18.60;99.90;;;;;;5056514;28;20033;-87
2021/09/10 01:28:31;;;;;;;8.65;4.63;;;18.70;99.90;;;;;;5055277;28;20075;-87
2021/09/10 01:30:57;;;;;;;9.93;4.90;;;18.70;99.90;;;;;;5056202;28;20428;-87
2021/09/10 01:33:24;;;;;;;7.10;4.68;;;18.70;99.90;;;;;;5054659;28;20111;-87
2021/09/10 01:35:50;;;;;;;6.57;4.80;;;18.60;99.90;;;;;;5056115;28;20506;-87
2021/09/10 01:38:15;;;;;;;7.07;4.85;;;18.60;99.90;;;;;;5054273;28;20050;-87
2021/09/10 01:40:41;;;;;;;10.77;5.25;;;18.50;99.90;;;;;;5054744;28;20473;-86
2021/09/10 01:43:07;;;;;;;6.97;4.70;;;18.60;99.90;;;;;;5054357;28;20025;-87
2021/09/10 01:45:33;;;;;;;7.07;4.78;;;18.90;99.90;;;;;;5055831;28;20083;-86
2021/09/10 01:47:59;;;;;;;6.53;4.70;;;18.80;99.90;;;;;;5054534;28;20025;-86
2021/09/10 01:50:26;;;;;;;7.03;4.75;;;18.70;99.90;;;;;;5054616;28;20079;-86
2021/09/10 01:52:53;;;;;;;6.50;4.80;;;18.60;99.90;;;;;;5050815;28;20047;-87
2021/09/10 01:55:19;;;;;;;9.77;4.75;;;18.60;99.90;;;;;;5035664;28;20436;-87
2021/09/10 01:57:47;;;;;;;9.25;5.40;;;18.60;99.90;;;;;;5017859;28;20112;-87
2021/09/10 02:00:14;;;;;;;6.72;5.20;;;18.60;99.90;;;;;;5035600;28;20018;-86
2021/09/10 02:02:40;;;;;;;6.88;4.75;;;18.60;99.90;;;;;;5017817;28;20405;-87
2021/09/10 02:05:07;;;;;;;5.22;4.53;;;18.50;99.90;;;;;;5017902;28;20037;-87
2021/09/10 02:07:33;;;;;;;7.03;5.07;;;18.50;99.90;;;;;;5017832;28;20030;-86
2021/09/10 02:09:59;;;;;;;6.43;4.95;;;18.70;99.90;;;;;;5017752;28;20025;-87
2021/09/10 02:12:24;;;;;;;8.18;5.00;;;18.80;99.90;;;;;;5035600;28;20025;-86
2021/09/10 02:14:50;;;;;;;9.40;4.72;;;18.80;99.90;;;;;;5017206;28;20034;-87
2021/09/10 02:17:16;;;;;;;8.80;4.82;;;18.90;99.90;;;;;;5035187;28;20021;-87
2021/09/10 02:19:41;;;;;;;5.72;4.85;;;19.00;99.90;;;;;;5035614;28;20021;-87
2021/09/10 02:22:07;;;;;;;6.90;5.20;;;19.00;99.90;;;;;;5017427;28;20045;-87
2021/09/10 02:24:33;;;;;;;5.80;4.95;;;19.10;99.90;;;;;;5017378;28;20098;-86
2021/09/10 02:26:59;;;;;;;8.70;5.32;;;19.20;99.90;;;;;;5017513;28;20025;-87
2021/09/10 02:29:24;;;;;;;8.45;5.53;;;19.30;99.90;;;;;;5017096;28;20393;-86
2021/09/10 02:31:50;;;;;;;7.82;5.47;;;19.30;99.90;;;;;;5017028;28;20025;-86
2021/09/10 02:34:16;;;;;;;7.45;4.90;;;19.30;99.90;;;;;;5017338;28;20033;-86
2021/09/10 02:36:42;;;;;;;6.70;4.82;;;19.20;99.90;;;;;;5017219;28;20366;-86
2021/09/10 02:39:11;;;;;;;8.80;5.43;;;19.10;99.90;;;;;;5017276;28;20385;-86
2021/09/10 02:41:37;;;;;;;8.75;5.15;;;19.10;99.90;;;;;;5017508;28;20029;-87
2021/09/10 02:44:04;;;;;;;6.18;5.00;;;19.10;99.90;;;;;;5017088;28;20499;-87
2021/09/10 02:46:30;;;;;;;6.43;5.10;;;19.00;99.90;;;;;;5034826;28;20040;-86
2021/09/10 02:48:56;;;;;;;8.07;5.03;;;19.00;99.90;;;;;;5017011;28;20025;-87
2021/09/10 02:51:22;;;;;;;6.10;4.88;;;19.00;99.90;;;;;;5017034;28;20053;-86
2021/09/10 02:53:47;;;;;;;8.70;5.50;;;18.80;99.90;;;;;;5037564;28;20049;-87
2021/09/10 02:56:13;;;;;;;7.60;4.90;;;18.70;99.90;;;;;;5052982;28;20111;-86
2021/09/10 02:58:39;;;;;;;7.80;5.57;;;18.50;99.90;;;;;;5054436;28;20021;-86
2021/09/10 03:01:05;;;;;;;8.82;5.20;;;18.40;99.90;;;;;;5054732;28;20104;-86
2021/09/10 03:03:30;;;;;;;6.07;4.82;;;18.40;99.90;;;;;;5054364;28;20465;-87
2021/09/10 03:05:57;;;;;;;8.75;5.32;;;18.30;99.90;;;;;;5053211;28;20096;-87
2021/09/10 03:08:23;;;;;;;9.35;5.70;;;18.20;99.90;;;;;;5054374;28;20496;-86
2021/09/10 03:10:50;;;;;;;8.18;5.30;;;18.40;99.90;;;;;;5054263;28;20017;-87
2021/09/10 03:13:16;;;;;;;7.63;5.28;;;18.50;99.90;;;;;;5052951;28;20554;-87
2021/09/10 03:15:42;;;;;;;7.50;5.45;;;18.50;99.90;;;;;;5052908;28;20121;-87
2021/09/10 03:18:08;;;;;;;6.03;5.30;;;18.60;99.90;;;;;;5052887;28;20457;-87
2021/09/10 03:20:34;;;;;;;9.20;5.05;;;18.60;99.90;;;;;;5054023;28;20439;-87
2021/09/10 03:23:00;;;;;;;10.30;5.75;;;18.70;99.90;;;;;;5054012;28;20092;-87
2021/09/10 03:25:25;;;;;;;7.32;5.22;;;18.60;99.90;;;;;;5053062;28;20460;-87
2021/09/10 03:27:51;;;;;;;10.18;6.00;;;18.60;99.90;;;;;;5052967;28;20025;-87
2021/09/10 03:30:19;;;;;;;8.60;5.78;;;18.60;99.90;;;;;;5053686;28;20033;-86
2021/09/10 03:32:44;;;;;;;8.57;6.05;;;18.50;99.90;;;;;;5053209;28;20028;-87
2021/09/10 03:35:10;;;;;;;6.78;5.32;;;18.60;99.90;;;;;;5052828;28;20095;-87
2021/09/10 03:37:36;;;;;;;9.88;5.65;;;18.70;99.90;;;;;;5052761;28;20504;-87
2021/09/10 03:40:03;;;;;;;9.73;6.28;;;18.50;99.90;;;;;;5052700;28;20025;-87
2021/09/10 03:42:29;;;;;;;7.85;5.45;;;18.50;99.90;;;;;;5052482;28;20025;-87
2021/09/10 03:44:54;;;;;;;15.75;5.43;;;18.50;99.90;;;;;;5053834;28;20025;-86
2021/09/10 03:47:20;;;;;;;10.65;5.22;;;18.30;99.90;;;;;;5052581;28;20028;-86
2021/09/10 03:49:46;;;;;;;11.50;5.55;;;18.30;99.90;;;;;;5052373;28;20032;-87
2021/09/10 03:52:12;;;;;;;7.38;5.35;;;18.10;99.90;;;;;;5052363;28;20037;-86
2021/09/10 03:54:38;;;;;;;10.43;5.80;;;18.00;99.90;;;;;;5052164;28;20132;-86
2021/09/10 03:57:04;;;;;;;7.38;5.85;;;18.00;99.90;;;;;;5052363;28;20046;-86
2021/09/10 03:59:29;;;;;;;7.57;5.40;;;18.10;99.90;;;;;;5052442;28;20080;-87
2021/09/10 04:01:55;;;;;;;7.45;5.60;;;17.90;99.90;;;;;;5052439;28;20021;-86
2021/09/10 04:04:21;;;;;;;9.80;5.15;;;17.70;99.90;;;;;;5053366;28;20049;-88
2021/09/10 04:06:47;;;;;;;6.57;5.40;;;17.70;99.90;;;;;;5051897;28;20025;-86
2021/09/10 04:09:12;;;;;;;9.35;5.47;;;17.70;99.90;;;;;;5053899;28;20109;-87
2021/09/10 04:11:38;;;;;;;6.95;5.40;;;17.60;99.90;;;;;;5052259;28;20025;-87
2021/09/10 04:14:05;;;;;;;8.05;5.43;;;17.50;99.90;;;;;;5052144;28;20091;-87
2021/09/10 04:16:32;;;;;;;10.95;5.65;;;17.50;99.90;;;;;;5053527;28;20108;-87
2021/09/10 04:18:57;;;;;;;10.18;5.40;;;17.50;99.90;;;;;;5053380;28;20025;-87
2021/09/10 04:21:23;;;;;;;6.45;5.00;;;17.50;99.90;;;;;;5052182;28;20025;-87
2021/09/10 04:23:49;;;;;;;9.70;6.15;;;17.60;99.90;;;;;;5052075;28;20024;-86
2021/09/10 04:26:14;;;;;;;6.93;5.38;;;17.40;99.90;;;;;;5052050;28;20392;-86
2021/09/10 04:28:41;;;;;;;9.25;5.50;;;17.40;99.90;;;;;;5052377;28;20029;-87
2021/09/10 04:31:06;;;;;;;11.00;5.53;;;17.40;99.90;;;;;;5052066;28;20059;-86
2021/09/10 04:33:32;;;;;;;7.82;5.22;;;17.50;99.90;;;;;;5051950;28;20025;-86
2021/09/10 04:35:57;;;;;;;10.63;5.75;;;17.70;99.90;;;;;;5051866;28;20025;-87
2021/09/10 04:38:23;;;;;;;8.27;5.60;;;17.60;99.90;;;;;;5052048;28;20025;-87
2021/09/10 04:40:49;;;;;;;10.30;5.63;;;17.40;99.90;;;;;;5051586;28;20017;-87
2021/09/10 04:43:14;;;;;;;10.35;6.30;;;17.20;99.90;;;;;;5051919;28;20178;-87
2021/09/10 04:45:40;;;;;;;7.07;5.20;;;17.30;99.90;;;;;;5053162;28;20036;-87
2021/09/10 04:48:07;;;;;;;8.30;5.70;;;17.30;99.90;;;;;;5053433;28;20078;-87
2021/09/10 04:50:33;;;;;;;6.18;5.53;;;17.40;99.90;;;;;;5053186;28;20025;-86
2021/09/10 04:52:59;;;;;;;9.68;5.63;;;17.40;99.90;;;;;;5047306;28;20044;-86
2021/09/10 04:55:25;;;;;;;9.57;5.57;;;17.50;99.90;;;;;;5015450;28;20125;-86
2021/09/10 04:57:50;;;;;;;10.02;5.82;;;17.50;99.90;;;;;;5015420;28;20022;-86
2021/09/10 05:00:16;;;;;;;9.70;5.43;;;17.40;99.90;;;;;;5015439;28;20030;-86
2021/09/10 05:02:42;;;;;;;9.23;5.72;;;17.40;99.90;;;;;;5016290;28;20063;-86
2021/09/10 05:05:08;;;;;;;11.05;5.90;;;17.40;99.90;;;;;;5018364;28;20047;-86
2021/09/10 05:07:34;;;;;;;8.50;5.40;;;17.50;99.90;;;;;;5015565;28;20519;-86
2021/09/10 05:10:00;;;;;;;7.25;5.53;;;17.60;99.90;;;;;;5015615;28;20029;-86
2021/09/10 05:12:26;;;;;;;10.05;5.70;;;17.80;99.90;;;;;;5015384;28;20075;-86
2021/09/10 05:14:52;;;;;;;10.00;5.90;;;17.70;99.90;;;;;;5015619;28;20029;-86
2021/09/10 05:17:18;;;;;;;8.82;5.60;;;17.70;99.90;;;;;;5015264;28;20029;-86
2021/09/10 05:19:44;;;;;;;10.90;5.93;;;17.60;99.90;;;;;;5018927;28;20026;-86
2021/09/10 05:22:10;;;;;;;8.57;5.97;;;17.90;99.90;;;;;;5018866;28;20531;-86
2021/09/10 05:24:35;;;;;;;6.85;5.65;;;17.90;99.90;;;;;;5018763;28;20021;-86
2021/09/10 05:27:01;;;;;;;7.63;5.35;;;18.10;99.90;;;;;;5019272;28;20473;-86
2021/09/10 05:29:27;;;;;;;7.10;6.00;;;18.00;99.90;;;;;;5036545;28;20036;-86
2021/09/10 05:31:53;;;;;;;6.78;5.18;;;17.90;99.90;;;;;;5018818;28;20032;-86
2021/09/10 05:34:19;;;;;;;11.68;5.93;;;17.90;99.90;;;;;;5018741;28;20053;-86
2021/09/10 05:36:44;;;;;;;7.78;5.50;;;18.00;99.90;;;;;;5018594;28;20028;-87
2021/09/10 05:39:10;;;;;;;6.28;5.43;;;18.00;99.90;;;;;;5036909;28;20021;-87
2021/09/10 05:41:36;;;;;;;10.02;5.50;;;18.10;99.90;;;;;;5021422;28;20026;-86
2021/09/10 05:44:01;;;;;;;9.25;5.75;;;18.30;99.90;;;;;;5024072;28;20362;-87
2021/09/10 05:46:27;;;;;;;9.70;5.68;;;18.40;99.90;;;;;;5019847;28;20025;-86
2021/09/10 05:48:53;;;;;;;9.73;5.50;;;18.50;99.90;;;;;;5018458;28;20035;-86
2021/09/10 05:51:18;;;;;;;6.90;5.65;;;18.50;99.90;;;;;;5018514;28;20378;-87
2021/09/10 05:53:44;;;;;;;15.95;5.57;;;18.60;99.90;;;;;;5038120;28;20386;-86
2021/09/10 05:56:10;;;;;;;7.70;5.43;;;18.60;99.90;;;;;;5054437;28;20112;-87
2021/09/10 05:58:35;;;;;;;9.82;5.43;;;18.80;99.90;;;;;;5054324;28;20071;-86
2021/09/10 06:01:01;;;;;;;7.35;5.90;;;18.80;99.90;;;;;;5055648;28;20096;-86
2021/09/10 06:03:27;;;;;;;9.05;6.15;;;18.70;99.90;;;;;;5054867;28;20017;-86
2021/09/10 06:05:52;;;;;;;8.93;5.75;;;18.80;99.90;;;;;;5055607;28;20439;-86
2021/09/10 06:08:18;;;;;;;9.55;6.18;;;18.80;99.90;;;;;;5055430;28;20028;-86
2021/09/10 06:10:46;;;;;;;10.95;5.75;;;18.90;99.90;;;;;;5054002;28;20067;-86
2021/09/10 06:13:12;;;;;;;11.43;5.55;;;18.90;99.90;;;;;;5054025;28;20021;-86
2021/09/10 06:15:38;;;;;;;7.80;5.72;;;19.10;99.90;;;;;;5054026;28;20163;-87
2021/09/10 06:18:04;;;;;;;10.00;5.57;;;19.30;99.90;;;;;;5053996;28;20063;-87
2021/09/10 06:20:29;;;;;;;8.57;5.53;;;19.50;99.90;;;;;;5054040;28;20114;-86
2021/09/10 06:22:55;;;;;;;9.00;5.45;;;19.70;99.90;;;;;;5054041;28;20032;-86
2021/09/10 06:25:21;;;;;;;8.65;5.78;;;19.80;99.90;;;;;;5054607;28;20116;-87
2021/09/10 06:27:47;;;;;;;5.93;5.05;;;20.00;99.90;;;;;;5053712;28;20392;-86
2021/09/10 06:30:12;;;;;;;9.57;5.72;;;20.20;99.90;;;;;;5054596;28;20025;-84
2021/09/10 06:32:38;;;;;;;9.30;5.80;;;19.90;99.90;;;;;;5053682;28;20021;-84
2021/09/10 06:35:04;;;;;;;9.30;5.88;;;19.90;99.90;;;;;;5055188;28;20029;-84
2021/09/10 06:37:30;;;;;;;9.60;6.18;;;19.70;99.90;;;;;;5053383;28;20070;-85
2021/09/10 06:39:56;;;;;;;9.93;6.43;;;19.70;99.90;;;;;;5053709;28;20027;-84
2021/09/10 06:42:22;;;;;;;11.30;5.80;;;19.60;99.90;;;;;;5054851;28;20096;-84
2021/09/10 06:44:50;;;;;;;13.32;5.80;;;19.60;99.90;;;;;;5053797;28;20025;-84
2021/09/10 06:47:16;;;;;;;10.73;6.03;;;19.60;99.90;;;;;;5053379;28;20040;-84
2021/09/10 06:49:42;;;;;;;13.40;5.95;;;19.40;99.90;;;;;;5053410;28;20389;-84
2021/09/10 06:52:08;;;;;;;9.00;6.00;;;19.50;99.90;;;;;;5053294;28;20025;-84
2021/09/10 06:54:34;;;;;;;9.15;6.15;;;19.40;99.90;;;;;;5053309;28;20386;-84
2021/09/10 06:56:59;;;;;;;8.25;5.72;;;19.60;99.90;;;;;;5053530;28;20032;-84
2021/09/10 06:59:25;;;;;;;10.52;6.45;;;19.90;99.90;;;;;;5053771;28;20043;-90
2021/09/10 07:01:50;;;;;;;13.07;5.82;;;19.50;99.90;;;;;;5055031;28;20496;-90
2021/09/10 07:04:16;;;;;;;13.10;5.90;;;19.60;99.90;;;;;;5053864;28;20095;-90
2021/09/10 07:06:42;;;;;;;12.98;5.90;;;19.80;99.90;;;;;;5052942;28;20119;-89
2021/09/10 07:09:08;;;;;;;10.98;6.15;;;20.00;99.90;;;;;;5053711;28;20021;-89
2021/09/10 07:11:34;;;;;;;13.10;5.68;;;20.20;99.90;;;;;;5053558;28;20033;-90
2021/09/10 07:14:01;;;;;;;13.30;5.88;;;20.40;99.90;;;;;;5053649;28;20061;-90
2021/09/10 07:16:27;;;;;;;9.63;6.80;;;20.50;99.90;;;;;;5054663;28;20082;-90
2021/09/10 07:18:53;;;;;;;8.13;5.70;;;20.50;99.90;;;;;;5053490;28;20029;-90
2021/09/10 07:21:19;;;;;;;7.60;6.00;;;20.50;99.90;;;;;;5053415;28;20017;-91
2021/09/10 07:23:44;;;;;;;10.70;5.93;;;20.60;99.90;;;;;;5053346;28;20452;-90
2021/09/10 07:26:10;;;;;;;12.23;6.40;;;20.60;99.90;;;;;;5053270;28;20107;-90
2021/09/10 07:28:36;;;;;;;12.10;6.25;;;20.70;99.90;;;;;;5054753;28;20106;-90
2021/09/10 07:31:04;;;;;;;11.02;6.22;;;20.70;99.90;;;;;;5053226;28;20083;-89
2021/09/10 07:33:30;;;;;;;8.32;6.30;;;20.60;99.90;;;;;;5053212;28;20115;-90
2021/09/10 07:35:56;;;;;;;9.25;6.22;;;20.70;99.90;;;;;;5052731;28;20028;-90
2021/09/10 07:38:22;;;;;;;11.65;5.63;;;20.70;99.90;;;;;;5053092;28;20031;-89
2021/09/10 07:40:48;;;;;;;12.57;6.13;;;20.80;99.90;;;;;;5053911;28;20032;-90
2021/09/10 07:43:14;;;;;;;9.70;5.97;;;20.70;99.90;;;;;;5053959;28;20029;-90
2021/09/10 07:45:40;;;;;;;11.20;5.72;;;20.80;99.90;;;;;;5053062;28;20485;-90
2021/09/10 07:48:06;;;;;;;10.35;6.03;;;20.90;99.90;;;;;;5052845;28;20021;-90
2021/09/10 07:50:32;;;;;;;7.53;5.40;;;21.00;99.90;;;;;;5053300;28;20078;-90
2021/09/10 07:52:57;;;;;;;10.73;6.03;;;21.20;99.90;;;;;;5053071;28;20590;-90
2021/09/10 07:55:23;;;;;;;10.88;5.55;;;21.30;99.90;;;;;;5055527;28;20223;-90
2021/09/10 07:57:49;;;;;;;8.80;5.38;;;21.20;99.90;;;;;;5056086;28;20067;-90
2021/09/10 08:00:21;;;;;;;7.65;5.30;;;21.20;99.90;;;;;;5053760;28;20525;-89
2021/09/10 08:02:47;;;;;;;10.90;5.88;;;21.40;99.90;;;;;;5053472;28;20411;-90
2021/09/10 08:05:13;;;;;;;9.43;5.60;;;21.70;99.90;;;;;;5053031;28;20044;-89
2021/09/10 08:07:38;;;;;;;12.50;5.82;;;21.90;99.90;;;;;;5053914;28;20485;-90
2021/09/10 08:10:04;;;;;;;10.57;5.63;;;21.60;99.90;;;;;;5053963;28;20036;-90
2021/09/10 08:12:30;;;;;;;8.18;5.55;;;21.70;99.90;;;;;;5052630;28;20436;-90
2021/09/10 08:14:58;;;;;;;8.23;5.70;;;21.80;99.90;;;;;;5052830;28;20063;-90
2021/09/10 08:17:24;;;;;;;10.82;5.47;;;21.90;99.90;;;;;;5052899;28;20079;-90
2021/09/10 08:19:50;;;;;;;14.38;6.07;;;21.80;99.90;;;;;;5054348;28;20464;-90
2021/09/10 08:22:17;;;;;;;12.23;5.43;;;21.90;99.90;;;;;;5052395;28;20063;-90
2021/09/10 08:24:44;;;;;;;10.30;5.20;;;21.90;99.90;;;;;;5052583;28;20033;-90
2021/09/10 08:27:10;;;;;;;11.40;5.88;;;21.80;99.90;;;;;;5053267;28;20052;-90
2021/09/10 08:29:35;;;;;;;11.95;5.95;;;21.70;99.90;;;;;;5052735;28;20029;-90
2021/09/10 08:32:01;;;;;;;7.05;5.35;;;21.70;99.90;;;;;;5053085;28;20124;-90
2021/09/10 08:34:27;;;;;;;8.63;5.40;;;21.70;99.90;;;;;;5052550;28;20385;-90
2021/09/10 08:36:53;;;;;;;5.93;4.95;;;21.60;99.90;;;;;;5052737;28;20028;-88
2021/09/10 08:39:18;;;;;;;8.13;5.72;;;21.40;99.90;;;;;;5053924;28;20524;-90
2021/09/10 08:41:44;;;;;;;10.52;5.82;;;21.40;99.90;;;;;;5054146;28;20029;-91
2021/09/10 08:44:13;;;;;;;10.75;5.38;;;21.50;99.90;;;;;;5052820;28;20036;-90
2021/09/10 08:46:40;;;;;;;12.50;6.25;;;21.50;99.90;;;;;;5053844;28;20448;-90
2021/09/10 08:49:08;;;;;;;9.23;5.50;;;21.40;99.90;;;;;;5052390;28;20053;-91
2021/09/10 08:51:34;;;;;;;10.80;5.25;;;21.40;99.90;;;;;;5052555;28;20420;-91
2021/09/10 08:54:00;;;;;;;12.65;5.50;;;21.40;99.90;;;;;;5055075;28;20090;-90
2021/09/10 08:56:25;;;;;;;11.23;5.35;;;21.60;99.90;;;;;;5055958;28;20033;-89
2021/09/10 08:59:05;;;;;;;10.23;5.30;;;21.70;99.90;;;;;;5057243;28;20025;-91
2021/09/10 09:01:31;;;;;;;10.88;5.30;;;21.60;99.90;;;;;;5055649;28;20044;-88
2021/09/10 09:04:04;;;;;;;7.07;5.22;;;21.90;99.90;;;;;;5055471;28;20401;-90
2021/09/10 09:06:34;;;;;;;9.05;4.72;;;22.00;99.90;;;;;;5056284;28;20037;-90
2021/09/10 09:09:03;;;;;;;8.73;5.30;;;21.80;99.90;;;;;;5055974;28;20492;-90
2021/09/10 09:11:29;;;;;;;6.40;4.95;;;22.00;99.90;;;;;;5055665;28;20029;-90
2021/09/10 09:13:56;;;;;;;6.50;5.28;;;22.10;99.90;;;;;;5055401;28;20029;-90
2021/09/10 09:16:30;;;;;;;6.40;4.88;;;22.10;99.90;;;;;;5055719;28;20028;-90
2021/09/10 09:19:04;;;;;;;8.75;5.38;;;22.30;99.90;;;;;;5055487;28;20021;-89
2021/09/10 09:21:35;;;;;;;7.37;5.43;;;22.70;99.90;;;;;;5055525;28;20040;-89
2021/09/10 09:24:21;;;;;;;11.00;5.47;;;23.00;99.90;;;;;;5055416;28;20317;-89
2021/09/10 09:26:49;;;;;;;7.35;5.13;;;22.80;99.90;;;;;;5055263;28;20420;-88
2021/09/10 09:29:17;;;;;;;9.07;4.70;;;22.70;99.90;;;;;;5054976;28;20033;-87
2021/09/10 09:31:57;;;;;;;8.95;5.00;;;22.50;99.90;;;;;;5054884;28;20078;-88
2021/09/10 09:34:43;;;;;;;10.30;4.82;;;22.50;99.90;;;;;;5054922;28;20086;-89
2021/09/10 09:37:09;;;;;;;7.68;4.65;;;22.80;99.90;;;;;;5054807;28;20032;-89
2021/09/10 09:40:02;;;;;;;9.80;4.80;;;22.90;99.90;;;;;;5056070;28;20468;-89
2021/09/10 09:42:31;;;;;;;7.05;4.38;;;22.80;99.90;;;;;;5057443;28;20017;-89
2021/09/10 09:45:16;;;;;;;6.82;4.85;;;22.80;99.90;;;;;;5057501;28;20025;-88
2021/09/10 09:47:43;;;;;;;7.00;5.30;;;22.60;99.90;;;;;;5056393;28;20432;-89
2021/09/10 09:50:11;;;;;;;7.63;4.93;;;22.60;99.90;;;;;;5054737;28;20029;-88
2021/09/10 09:52:37;;;;;;;7.88;4.80;;;22.70;99.90;;;;;;5051513;28;20107;-88
2021/09/10 09:55:05;;;;;;;7.55;5.03;;;22.80;99.90;;;;;;5035809;28;20120;-88
2021/09/10 09:57:32;;;;;;;11.90;5.60;;;22.80;99.90;;;;;;5017856;28;20021;-90
2021/09/10 10:00:02;;;;;;;9.15;4.80;;;22.80;99.90;;;;;;5035897;28;20029;-90
2021/09/10 10:02:28;;;;;;;10.73;4.90;;;22.80;99.90;;;;;;5019405;28;20060;-89
2021/09/10 10:04:57;;;;;;;8.13;5.07;;;23.10;99.90;;;;;;5019194;28;20056;-89
2021/09/10 10:07:23;;;;;;;10.10;4.78;;;23.20;99.90;;;;;;5019462;28;20030;-89
2021/09/10 10:09:51;;;;;;;11.57;5.38;;;23.10;99.90;;;;;;5037928;28;20120;-89
2021/09/10 10:12:21;;;;;;;11.25;4.70;;;23.10;99.90;;;;;;5019065;28;20026;-90
2021/09/10 10:14:47;;;;;;;9.82;5.28;;;23.30;99.90;;;;;;5020519;28;20042;-90
2021/09/10 10:17:31;;;;;;;11.15;5.07;;;23.30;99.90;;;;;;5036304;28;20040;-91
2021/09/10 10:19:58;;;;;;;8.90;5.05;;;23.40;99.90;;;;;;5035901;28;20025;-90
2021/09/10 10:22:40;;;;;;;5.75;4.70;;;23.60;99.90;;;;;;5017958;28;20512;-88
2021/09/10 10:25:09;;;;;;;8.45;5.20;;;23.80;99.90;;;;;;5035738;28;20112;-90
2021/09/10 10:27:41;;;;;;;10.10;5.10;;;23.80;99.90;;;;;;5017292;28;20091;-90
2021/09/10 10:30:14;;;;;;;9.55;4.85;;;23.90;99.90;;;;;;5017164;28;20032;-90
2021/09/10 10:32:49;;;;;;;11.10;4.88;;;23.90;99.90;;;;;;5034869;28;20434;-90
2021/09/10 10:35:21;;;;;;;9.38;5.10;;;24.10;99.90;;;;;;5016820;28;20025;-90
2021/09/10 10:38:02;;;;;;;9.98;4.78;;;24.30;99.90;;;;;;5017763;28;20029;-90
2021/09/10 10:40:38;;;;;;;8.88;4.45;;;25.00;99.90;;;;;;5016883;28;20037;-90
2021/09/10 10:43:22;;;;;;;7.40;4.60;;;25.80;99.90;;;;;;5017172;28;20033;-89
2021/09/10 10:45:48;;;;;;;10.48;4.97;;;26.50;99.90;;;;;;5017113;28;20026;-89
2021/09/10 10:48:29;;;;;;;10.05;4.75;;;26.80;99.90;;;;;;5034859;28;20036;-89
2021/09/10 10:50:56;;;;;;;8.07;5.05;;;26.10;99.90;;;;;;5016778;28;20183;-90
2021/09/10 10:53:22;;;;;;;8.82;4.85;;;25.60;99.90;;;;;;5031861;28;20048;-90
2021/09/10 10:55:48;;;;;;;10.80;4.68;;;25.20;99.90;;;;;;5053380;28;20524;-90
2021/09/10 10:58:27;;;;;;;6.70;4.70;;;25.00;99.90;;;;;;5055359;28;20048;-90
2021/09/10 11:01:00;;;;;;;9.75;5.07;;;24.90;99.90;;;;;;5057588;28;20088;-90
2021/09/10 11:03:25;;;;;;;9.53;4.77;;;24.60;99.90;;;;;;5053813;28;20052;-90
2021/09/10 11:05:54;;;;;;;9.38;5.57;;;24.60;99.90;;;;;;5053952;28;20491;-89
2021/09/10 11:08:36;;;;;;;9.27;4.80;;;24.50;99.90;;;;;;5053708;28;20025;-89
2021/09/10 11:11:03;;;;;;;7.63;4.70;;;24.30;99.90;;;;;;5053678;28;20503;-89
2021/09/10 11:13:29;;;;;;;6.40;5.07;;;24.10;99.90;;;;;;5053516;28;20028;-90
2021/09/10 11:16:00;;;;;;;13.32;5.40;;;23.90;99.90;;;;;;5052674;28;20477;-90
2021/09/10 11:18:26;;;;;;;14.98;5.88;;;23.90;99.90;;;;;;5053422;28;20115;-90
2021/09/10 11:20:53;;;;;;;8.52;5.20;;;23.90;99.90;;;;;;5054522;28;20021;-90
2021/09/10 11:23:31;;;;;;;8.38;4.47;;;23.90;99.90;;;;;;5054574;28;20017;-90
2021/09/10 11:25:58;;;;;;;7.22;4.88;;;23.90;99.90;;;;;;5053296;28;20036;-90
2021/09/10 11:28:28;;;;;;;9.38;5.10;;;23.80;99.90;;;;;;5056180;28;20032;-90
2021/09/10 11:30:54;;;;;;;6.50;4.57;;;23.70;99.90;;;;;;5054206;28;20140;-90
2021/09/10 11:33:21;;;;;;;6.63;5.50;;;23.60;99.90;;;;;;5054331;28;20017;-90
2021/09/10 11:35:50;;;;;;;8.70;4.40;;;23.70;99.90;;;;;;5052902;28;20033;-90
2021/09/10 11:38:25;;;;;;;7.43;4.75;;;23.50;99.90;;;;;;5054005;28;20021;-89
2021/09/10 11:40:56;;;;;;;9.23;4.80;;;23.50;99.90;;;;;;5053061;28;20025;-90
2021/09/10 11:43:28;;;;;;;5.65;4.22;;;23.50;99.90;;;;;;5052820;28;20429;-90
2021/09/10 11:45:57;;;;;;;11.70;4.70;;;23.40;99.90;;;;;;5052591;28;20400;-90
2021/09/10 11:48:32;;;;;;;7.05;4.40;;;23.40;99.90;;;;;;5052298;28;20108;-90
2021/09/10 11:51:00;;;;;;;7.00;4.50;;;23.40;99.90;;;;;;5053483;28;20445;-89
2021/09/10 11:53:47;;;;;;;10.73;4.47;;;23.40;99.90;;;;;;5043455;28;20045;-88
2021/09/10 11:56:19;;;;;;;6.88;4.28;;;23.70;99.90;;;;;;5015640;28;20029;-88
2021/09/10 11:58:50;;;;;;;7.18;4.03;;;24.30;99.90;;;;;;5015491;28;20021;-87
2021/09/10 12:01:30;;;;;;;4.82;3.65;;;24.30;99.90;;;;;;5033238;28;20473;-88
2021/09/10 12:04:02;;;;;;;5.50;3.60;;;24.50;99.90;;;;;;5015394;28;20465;-87
2021/09/10 12:06:33;;;;;;;6.18;4.00;;;24.90;99.90;;;;;;5015282;28;20021;-88
2021/09/10 12:09:11;;;;;;;6.07;3.90;;;25.10;99.90;;;;;;5033273;28;20022;-88
2021/09/10 12:11:37;;;;;;;4.32;3.90;;;25.00;99.90;;;;;;5015451;28;20473;-87
2021/09/10 12:14:18;;;;;;;5.50;3.35;;;24.80;99.90;;;;;;5015580;28;20391;-88
2021/09/10 12:17:02;;;;;;;5.07;3.55;;;24.60;99.90;;;;;;5015927;28;20555;-87
2021/09/10 12:19:28;;;;;;;4.85;3.35;;;24.60;99.90;;;;;;5018521;28;20025;-89
2021/09/10 12:22:43;;;;;;;3.80;2.90;;;24.50;99.90;;;;;;5035753;28;20469;-89
2021/09/10 12:25:27;;;;;;;4.25;2.80;;;24.40;99.90;;;;;;5016219;28;20109;-89
2021/09/10 12:28:03;;;;;;;4.40;3.00;;;24.50;99.90;;;;;;5020130;28;20032;-87
2021/09/10 12:30:33;;;;;;;3.20;2.75;;;24.50;99.90;;;;;;5019644;28;20029;-88
2021/09/10 12:32:59;;;;;;;3.42;2.53;;;24.60;99.90;;;;;;5020071;28;20481;-89
2021/09/10 12:35:27;;;;;;;4.68;2.70;;;24.70;99.90;;;;;;5022252;28;20032;-88
2021/09/10 12:37:58;;;;;;;4.90;2.80;;;25.10;99.90;;;;;;5019177;28;20482;-88
2021/09/10 12:40:44;;;;;;;6.25;3.03;;;25.00;99.90;;;;;;5021195;28;20029;-88
2021/09/10 12:43:13;;;;;;;4.38;3.08;;;25.30;99.90;;;;;;5037455;28;20029;-88
2021/09/10 12:45:38;;;;;;;4.40;3.10;;;25.20;99.90;;;;;;5019065;28;20061;-89